createdAt,value
2023-03-12T00:00:50.088Z,0.90
2023-03-12T00:03:18.572Z,1.00
2023-03-12T00:05:46.748Z,1.10
2023-03-12T00:08:15.006Z,0.90
2023-03-12T00:10:43.152Z,0.80
2023-03-12T00:13:11.223Z,22.90
2023-03-12T00:15:40.861Z,3.87
2023-03-12T00:18:08.926Z,0.93
2023-03-12T00:20:36.899Z,1.80
2023-03-12T00:23:05.368Z,1.10
2023-03-12T00:25:33.608Z,1.10
2023-03-12T00:28:01.691Z,0.60
2023-03-12T00:30:29.666Z,0.70
2023-03-12T00:32:58.976Z,0.83
2023-03-12T00:35:26.979Z,0.73
2023-03-12T00:37:54.997Z,0.60
2023-03-12T00:40:23.047Z,0.20
2023-03-12T00:42:51.009Z,0.40
2023-03-12T00:45:19.149Z,0.73
2023-03-12T00:47:47.121Z,0.30
2023-03-12T00:50:16.957Z,0.37
2023-03-12T00:52:45.281Z,0.40
2023-03-12T00:55:13.290Z,0.60
2023-03-12T00:57:41.244Z,0.90
2023-03-12T01:00:10.941Z,0.77
2023-03-12T01:02:39.643Z,0.60
2023-03-12T01:05:09.853Z,0.50
2023-03-12T01:07:39.512Z,0.40
2023-03-12T01:10:09.180Z,0.60
2023-03-12T01:12:37.379Z,0.40
2023-03-12T01:15:05.933Z,0.40
2023-03-12T01:17:34.010Z,0.90
2023-03-12T01:20:02.044Z,0.60
2023-03-12T01:22:30.097Z,0.40
2023-03-12T01:24:59.428Z,0.40
2023-03-12T01:27:27.813Z,0.30
2023-03-12T01:29:55.897Z,0.50
2023-03-12T01:32:24.066Z,0.50
2023-03-12T01:34:52.107Z,0.70
2023-03-12T01:37:20.092Z,0.67
2023-03-12T01:39:48.106Z,0.50
2023-03-12T01:42:17.477Z,0.30
2023-03-12T01:44:53.698Z,0.30
2023-03-12T01:47:21.836Z,0.60
2023-03-12T01:49:51.221Z,0.70
2023-03-12T01:52:23.567Z,0.50
2023-03-12T01:54:56.575Z,0.40
2023-03-12T01:57:35.445Z,0.20
2023-03-12T02:00:09.026Z,0.40
2023-03-12T02:02:37.782Z,0.40
2023-03-12T02:05:14.714Z,0.30
2023-03-12T02:07:45.336Z,0.20
2023-03-12T02:10:13.487Z,0.30
2023-03-12T02:12:42.914Z,0.30
2023-03-12T02:15:12.081Z,0.40
2023-03-12T02:17:40.610Z,0.60
2023-03-12T02:20:18.686Z,0.70
2023-03-12T02:22:52.618Z,0.70
2023-03-12T02:25:31.010Z,1.27
2023-03-12T02:28:01.057Z,0.90
2023-03-12T02:30:31.306Z,0.40
2023-03-12T02:33:02.977Z,0.30
2023-03-12T02:35:31.205Z,0.40
2023-03-12T02:37:59.474Z,0.60
2023-03-12T02:40:33.302Z,0.50
2023-03-12T02:43:07.361Z,0.50
2023-03-12T02:45:39.373Z,0.40
2023-03-12T02:48:10.367Z,0.30
2023-03-12T02:50:38.415Z,0.50
2023-03-12T02:53:09.001Z,0.50
2023-03-12T02:55:38.360Z,0.40
2023-03-12T02:58:06.388Z,0.57
2023-03-12T03:00:34.521Z,0.30
2023-03-12T03:03:03.140Z,0.30
2023-03-12T03:05:31.202Z,0.20
2023-03-12T03:07:59.204Z,0.20
2023-03-12T03:10:27.239Z,0.30
2023-03-12T03:12:57.961Z,0.33
2023-03-12T03:15:26.193Z,0.20
2023-03-12T03:17:54.206Z,0.40
2023-03-12T03:20:22.750Z,0.30
2023-03-12T03:22:50.755Z,0.10
2023-03-12T03:25:22.297Z,0.23
2023-03-12T03:27:50.372Z,0.30
2023-03-12T03:30:21.331Z,0.20
2023-03-12T03:32:49.854Z,0.13
2023-03-12T03:35:18.833Z,0.20
2023-03-12T03:37:47.032Z,0.20
2023-03-12T03:40:15.084Z,0.30
2023-03-12T03:42:43.063Z,0.30
2023-03-12T03:45:11.383Z,0.30
2023-03-12T03:47:40.713Z,0.30
2023-03-12T03:50:09.333Z,0.30
2023-03-12T03:52:37.439Z,0.30
2023-03-12T03:55:05.954Z,0.20
2023-03-12T03:57:33.974Z,0.30
2023-03-12T04:00:03.941Z,0.30
2023-03-12T04:02:32.164Z,0.30
2023-03-12T04:05:01.697Z,0.10
2023-03-12T04:07:29.842Z,0.30
2023-03-12T04:09:58.718Z,0.30
2023-03-12T04:12:26.774Z,0.20
2023-03-12T04:14:54.830Z,0.10
2023-03-12T04:17:23.532Z,0.20
2023-03-12T04:19:51.707Z,0.20
2023-03-12T04:22:21.036Z,0.20
2023-03-12T04:24:49.030Z,0.30
2023-03-12T04:27:17.136Z,0.20
2023-03-12T04:29:45.476Z,0.30
2023-03-12T04:32:13.418Z,0.20
2023-03-12T04:34:41.466Z,0.27
2023-03-12T04:37:11.363Z,0.30
2023-03-12T04:39:41.269Z,0.20
2023-03-12T04:42:09.989Z,0.30
2023-03-12T04:44:38.484Z,0.40
2023-03-12T04:47:06.705Z,0.27
2023-03-12T04:49:34.772Z,0.20
2023-03-12T04:52:02.739Z,0.30
2023-03-12T04:54:31.955Z,0.20
2023-03-12T04:57:01.313Z,0.20
2023-03-12T04:59:29.487Z,0.23
2023-03-12T05:01:57.446Z,0.30
2023-03-12T05:04:25.515Z,0.30
2023-03-12T05:06:53.526Z,0.23
2023-03-12T05:09:21.657Z,0.30
2023-03-12T05:11:49.774Z,0.30
2023-03-12T05:14:19.177Z,0.30
2023-03-12T05:16:47.245Z,0.30
2023-03-12T05:19:15.250Z,0.30
2023-03-12T05:21:43.316Z,0.20
2023-03-12T05:24:12.293Z,0.20
2023-03-12T05:26:40.772Z,0.20
2023-03-12T05:29:08.766Z,0.20
2023-03-12T05:31:38.227Z,0.40
2023-03-12T05:34:06.794Z,0.53
2023-03-12T05:36:35.123Z,0.30
2023-03-12T05:39:03.325Z,0.30
2023-03-12T05:41:31.873Z,0.43
2023-03-12T05:44:00.318Z,0.20
2023-03-12T05:46:29.126Z,0.20
2023-03-12T05:48:58.752Z,0.37
2023-03-12T05:51:26.894Z,0.40
2023-03-12T05:53:54.895Z,0.20
2023-03-12T05:56:22.912Z,0.10
2023-03-12T05:58:50.923Z,0.20
2023-03-12T06:01:22.953Z,0.30
2023-03-12T06:03:51.389Z,0.53
2023-03-12T06:06:21.406Z,0.60
2023-03-12T06:08:49.481Z,0.50
2023-03-12T06:11:17.937Z,0.30
2023-03-12T06:13:45.955Z,0.40
2023-03-12T06:16:18.817Z,0.40
2023-03-12T06:18:46.898Z,0.40
2023-03-12T06:21:17.265Z,0.50
2023-03-12T06:23:47.573Z,0.40
2023-03-12T06:26:16.592Z,0.30
2023-03-12T06:28:44.612Z,0.40
2023-03-12T06:31:12.753Z,0.40
2023-03-12T06:33:40.848Z,0.37
2023-03-12T06:36:10.607Z,0.40
2023-03-12T06:38:39.033Z,0.50
2023-03-12T06:41:10.264Z,0.40
2023-03-12T06:43:39.896Z,1.00
2023-03-12T06:46:13.639Z,0.90
2023-03-12T06:48:42.290Z,0.90
2023-03-12T06:51:11.560Z,1.10
2023-03-12T06:53:42.225Z,0.87
2023-03-12T06:56:12.730Z,0.63
2023-03-12T06:58:42.219Z,0.80
2023-03-12T07:01:12.217Z,0.60
2023-03-12T07:03:40.466Z,0.60
2023-03-12T07:06:16.516Z,0.60
2023-03-12T07:08:45.010Z,0.60
2023-03-12T07:11:15.074Z,0.47
2023-03-12T07:13:43.472Z,0.60
2023-03-12T07:16:12.454Z,0.70
2023-03-12T07:18:40.927Z,0.70
2023-03-12T07:21:08.988Z,0.90
2023-03-12T07:23:37.052Z,0.77
2023-03-12T07:26:05.850Z,0.60
2023-03-12T07:28:38.042Z,0.47
2023-03-12T07:31:06.904Z,0.60
2023-03-12T07:33:38.470Z,0.60
2023-03-12T07:36:07.527Z,0.60
2023-03-12T07:38:35.610Z,0.70
2023-03-12T07:41:03.677Z,0.60
2023-03-12T07:43:31.695Z,0.60
2023-03-12T07:46:01.056Z,0.90
2023-03-12T07:48:31.838Z,0.60
2023-03-12T07:50:59.795Z,0.40
2023-03-12T07:53:27.886Z,0.70
2023-03-12T07:55:56.394Z,0.60
2023-03-12T07:58:24.610Z,0.60
2023-03-12T08:00:53.814Z,0.47
2023-03-12T08:03:23.426Z,0.80
2023-03-12T08:05:59.325Z,0.67
2023-03-12T08:08:27.855Z,0.80
2023-03-12T08:10:56.476Z,0.70
2023-03-12T08:13:24.870Z,0.70
2023-03-12T08:15:54.247Z,0.67
2023-03-12T08:18:24.962Z,0.70
2023-03-12T08:20:53.880Z,0.70
2023-03-12T08:23:23.163Z,0.77
2023-03-12T08:25:51.563Z,0.37
2023-03-12T08:28:20.925Z,0.60
2023-03-12T08:30:50.033Z,0.47
2023-03-12T08:33:18.277Z,0.80
2023-03-12T08:35:47.837Z,0.70
2023-03-12T08:38:15.791Z,0.63
2023-03-12T08:40:43.873Z,0.73
2023-03-12T08:43:13.457Z,0.77
2023-03-12T08:45:42.166Z,0.70
2023-03-12T08:48:14.269Z,1.20
2023-03-12T08:50:43.384Z,0.60
2023-03-12T08:53:14.522Z,0.80
2023-03-12T08:55:43.388Z,0.80
2023-03-12T08:58:11.521Z,0.60
2023-03-12T09:00:41.476Z,0.70
2023-03-12T09:03:15.166Z,0.50
2023-03-12T09:05:44.704Z,0.60
2023-03-12T09:08:15.594Z,0.55
2023-03-12T09:10:50.169Z,0.70
2023-03-12T09:13:18.492Z,0.80
2023-03-12T09:15:46.425Z,0.80
2023-03-12T09:18:14.365Z,0.80
2023-03-12T09:20:43.707Z,0.70
2023-03-12T09:23:13.021Z,0.60
2023-03-12T09:25:41.035Z,0.63
2023-03-12T09:28:09.793Z,0.60
2023-03-12T09:30:37.828Z,0.60
2023-03-12T09:33:06.320Z,0.70
2023-03-12T09:35:34.551Z,1.13
2023-03-12T09:38:02.758Z,0.63
2023-03-12T09:40:34.011Z,1.08
2023-03-12T09:43:05.868Z,0.82
2023-03-12T09:45:39.322Z,0.60
2023-03-12T09:48:13.568Z,1.00
2023-03-12T09:50:44.379Z,0.60
2023-03-12T09:53:22.146Z,0.95
2023-03-12T09:55:54.816Z,0.90
2023-03-12T09:58:28.625Z,0.68
2023-03-12T10:01:07.162Z,0.70
2023-03-12T10:03:52.287Z,0.40
2023-03-12T10:06:22.842Z,0.70
2023-03-12T10:09:07.032Z,0.50
2023-03-12T10:11:49.697Z,0.60
2023-03-12T10:14:28.142Z,0.60
2023-03-12T10:17:03.531Z,0.57
2023-03-12T10:19:45.329Z,0.50
2023-03-12T10:22:25.782Z,0.43
2023-03-12T10:25:02.147Z,0.65
2023-03-12T10:27:37.064Z,0.63
2023-03-12T10:30:16.826Z,0.57
2023-03-12T10:32:51.709Z,0.50
2023-03-12T10:35:22.129Z,0.75
2023-03-12T10:37:53.409Z,0.50
2023-03-12T10:40:23.543Z,0.55
2023-03-12T10:42:53.560Z,0.60
2023-03-12T10:45:32.367Z,0.40
2023-03-12T10:48:03.678Z,0.50
2023-03-12T10:50:33.503Z,0.50
2023-03-12T10:53:28.572Z,0.50
2023-03-12T10:56:02.753Z,0.60
2023-03-12T10:58:37.625Z,0.50
2023-03-12T11:01:08.621Z,0.50
2023-03-12T11:03:36.733Z,0.50
2023-03-12T11:06:08.570Z,0.50
2023-03-12T11:08:38.344Z,0.50
2023-03-12T11:11:06.934Z,0.70
2023-03-12T11:13:38.185Z,0.85
2023-03-12T11:16:30.788Z,1.10
2023-03-12T11:19:01.580Z,0.80
2023-03-12T11:21:30.697Z,0.70
2023-03-12T11:24:08.366Z,0.75
2023-03-12T11:26:41.990Z,0.80
2023-03-12T11:29:24.112Z,1.00
2023-03-12T11:32:03.552Z,0.77
2023-03-12T11:34:34.160Z,0.80
2023-03-12T11:37:09.075Z,0.70
2023-03-12T11:39:50.465Z,0.93
2023-03-12T11:42:28.356Z,0.90
2023-03-12T11:45:10.056Z,0.77
2023-03-12T11:48:00.609Z,0.80
2023-03-12T11:50:43.781Z,0.80
2023-03-12T11:53:29.724Z,0.80
2023-03-12T11:56:16.882Z,0.70
2023-03-12T11:58:57.043Z,0.82
2023-03-12T12:01:39.482Z,0.70
2023-03-12T12:04:42.758Z,0.80
2023-03-12T12:07:24.065Z,0.90
2023-03-12T12:09:59.215Z,0.60
2023-03-12T12:12:42.895Z,0.80
2023-03-12T12:15:21.639Z,0.80
2023-03-12T12:18:01.248Z,1.00
2023-03-12T12:20:39.084Z,0.60
2023-03-12T12:23:17.339Z,0.60
2023-03-12T12:26:02.415Z,0.60
2023-03-12T12:29:06.844Z,0.60
2023-03-12T12:31:41.599Z,0.43
2023-03-12T12:34:32.438Z,0.50
2023-03-12T12:37:18.669Z,0.60
2023-03-12T12:39:51.127Z,0.80
2023-03-12T12:42:24.705Z,0.70
2023-03-12T12:44:56.317Z,0.60
2023-03-12T12:47:38.795Z,0.70
2023-03-12T12:50:15.932Z,1.10
2023-03-12T12:52:44.898Z,0.73
2023-03-12T12:55:18.011Z,0.65
2023-03-12T12:57:50.502Z,0.63
2023-03-12T13:00:34.391Z,0.70
2023-03-12T13:03:03.331Z,0.70
2023-03-12T13:05:47.236Z,1.20
2023-03-12T13:08:53.385Z,0.75
2023-03-12T13:11:28.416Z,0.65
2023-03-12T13:14:35.287Z,0.65
2023-03-12T13:17:21.910Z,0.60
2023-03-12T13:20:00.830Z,41.90
2023-03-12T13:22:45.988Z,3.47
2023-03-12T13:25:36.224Z,1.00
2023-03-12T13:28:32.371Z,0.80
2023-03-12T13:31:03.138Z,0.90
2023-03-12T13:33:45.507Z,0.70
2023-03-12T13:36:28.418Z,0.80
2023-03-12T13:39:01.673Z,0.55
2023-03-12T13:41:35.745Z,0.70
2023-03-12T13:44:29.952Z,0.70
2023-03-12T13:47:03.825Z,0.70
2023-03-12T13:49:38.408Z,0.50
2023-03-12T13:52:23.686Z,0.90
2023-03-12T13:55:00.747Z,0.60
2023-03-12T13:57:38.903Z,0.70
2023-03-12T14:00:16.592Z,0.70
2023-03-12T14:02:50.935Z,0.80
2023-03-12T14:05:21.626Z,0.47
2023-03-12T14:08:19.177Z,0.73
2023-03-12T14:11:04.626Z,0.90
2023-03-12T14:13:45.621Z,0.63
2023-03-12T14:16:22.865Z,0.52
2023-03-12T14:18:53.714Z,0.50
2023-03-12T14:21:23.389Z,0.70
2023-03-12T14:23:54.144Z,0.60
2023-03-12T14:26:25.650Z,0.60
2023-03-12T14:29:01.357Z,0.60
2023-03-12T14:31:31.779Z,0.57
2023-03-12T14:34:06.925Z,1.23
2023-03-12T14:36:42.240Z,0.80
2023-03-12T14:39:21.919Z,0.50
2023-03-12T14:41:57.286Z,0.82
2023-03-12T14:44:27.480Z,0.50
2023-03-12T14:47:00.980Z,0.60
2023-03-12T14:49:31.524Z,0.70
2023-03-12T14:51:59.476Z,0.60
2023-03-12T14:54:29.737Z,0.60
2023-03-12T14:56:57.768Z,0.70
2023-03-12T14:59:29.298Z,0.70
2023-03-12T15:02:01.787Z,0.63
2023-03-12T15:04:34.838Z,0.40
2023-03-12T15:07:05.213Z,0.50
2023-03-12T15:09:36.492Z,0.60
2023-03-12T15:12:07.978Z,0.70
2023-03-12T15:14:41.002Z,0.90
2023-03-12T15:17:09.427Z,0.60
2023-03-12T15:19:41.041Z,0.50
2023-03-12T15:22:14.059Z,0.45
2023-03-12T15:24:41.999Z,0.60
2023-03-12T15:27:31.861Z,0.77
2023-03-12T15:30:02.042Z,0.75
2023-03-12T15:32:32.035Z,0.60
2023-03-12T15:35:14.631Z,0.80
2023-03-12T15:37:53.530Z,0.60
2023-03-12T15:40:24.612Z,0.80
2023-03-12T15:42:57.458Z,0.60
2023-03-12T15:45:27.719Z,0.80
2023-03-12T15:47:56.488Z,0.70
2023-03-12T15:50:31.500Z,0.50
2023-03-12T15:53:01.988Z,0.60
2023-03-12T15:55:31.424Z,0.60
2023-03-12T15:58:00.433Z,0.63
2023-03-12T16:00:29.625Z,0.80
2023-03-12T16:02:59.670Z,0.73
2023-03-12T16:05:33.289Z,0.60
2023-03-12T16:08:03.893Z,0.60
2023-03-12T16:10:37.278Z,0.90
2023-03-12T16:13:06.057Z,1.00
2023-03-12T16:15:37.885Z,0.60
2023-03-12T16:18:06.284Z,0.80
2023-03-12T16:20:35.611Z,0.70
2023-03-12T16:23:03.615Z,0.80
2023-03-12T16:25:35.332Z,0.90
2023-03-12T16:28:06.691Z,0.90
2023-03-12T16:30:36.456Z,0.77
2023-03-12T16:33:09.206Z,0.70
2023-03-12T16:35:38.829Z,1.00
2023-03-12T16:38:07.337Z,0.80
2023-03-12T16:40:38.323Z,0.80
2023-03-12T16:43:09.059Z,0.73
2023-03-12T16:45:38.090Z,0.82
2023-03-12T16:48:07.481Z,0.70
2023-03-12T16:50:35.435Z,0.70
2023-03-12T16:53:05.953Z,0.85
2023-03-12T16:55:45.176Z,1.00
2023-03-12T16:58:15.592Z,0.98
2023-03-12T17:00:43.696Z,1.08
2023-03-12T17:03:20.617Z,0.80
2023-03-12T17:05:48.796Z,1.00
2023-03-12T17:08:18.121Z,0.90
2023-03-12T17:10:46.213Z,1.20
2023-03-12T17:13:20.963Z,0.90
2023-03-12T17:15:49.416Z,1.10
2023-03-12T17:18:17.801Z,0.80
2023-03-12T17:20:46.236Z,0.90
2023-03-12T17:23:14.534Z,0.90
2023-03-12T17:25:45.560Z,0.80
2023-03-12T17:28:15.295Z,0.93
2023-03-12T17:30:45.364Z,0.93
2023-03-12T17:33:15.416Z,1.00
2023-03-12T17:35:44.227Z,0.90
2023-03-12T17:38:13.171Z,0.80
2023-03-12T17:40:41.514Z,0.90
2023-03-12T17:43:11.099Z,1.00
2023-03-12T17:45:39.240Z,0.90
2023-03-12T17:48:07.438Z,1.10
2023-03-12T17:50:35.812Z,1.00
2023-03-12T17:53:03.869Z,1.10
2023-03-12T17:55:31.802Z,1.10
2023-03-12T17:57:59.996Z,1.20
2023-03-12T18:00:29.281Z,0.95
2023-03-12T18:02:57.377Z,1.00
2023-03-12T18:05:25.525Z,0.98
2023-03-12T18:07:53.836Z,1.05
2023-03-12T18:10:22.391Z,1.00
2023-03-12T18:12:50.487Z,1.20
2023-03-12T18:15:18.448Z,1.13
2023-03-12T18:17:50.101Z,1.10
2023-03-12T18:20:28.725Z,1.35
2023-03-12T18:23:00.668Z,1.30
2023-03-12T18:25:28.613Z,1.30
2023-03-12T18:27:56.827Z,1.70
2023-03-12T18:30:24.770Z,1.70
2023-03-12T18:32:54.361Z,1.42
2023-03-12T18:35:28.705Z,1.52
2023-03-12T18:37:56.901Z,1.60
2023-03-12T18:40:25.109Z,1.60
2023-03-12T18:42:53.296Z,1.60
2023-03-12T18:45:21.251Z,2.20
2023-03-12T18:47:51.108Z,5.10
2023-03-12T18:50:21.671Z,5.28
2023-03-12T18:52:49.859Z,4.28
2023-03-12T18:55:18.354Z,4.45
2023-03-12T18:57:47.731Z,4.13
2023-03-12T19:00:18.331Z,3.80
2023-03-12T19:02:48.393Z,2.22
2023-03-12T19:05:17.557Z,2.00
2023-03-12T19:07:47.030Z,2.70
2023-03-12T19:10:16.153Z,3.38
2023-03-12T19:12:53.630Z,3.43
2023-03-12T19:15:24.505Z,2.90
2023-03-12T19:17:52.703Z,3.10
2023-03-12T19:20:21.206Z,3.80
2023-03-12T19:22:50.886Z,4.10
2023-03-12T19:25:20.064Z,3.92
2023-03-12T19:27:48.278Z,4.25
2023-03-12T19:30:16.837Z,4.60
2023-03-12T19:32:45.040Z,5.57
2023-03-12T19:35:14.990Z,21.50
2023-03-12T19:37:43.366Z,17.13
2023-03-12T19:40:14.460Z,10.90
2023-03-12T19:42:42.534Z,7.33
2023-03-12T19:45:11.902Z,5.40
2023-03-12T19:47:39.924Z,4.43
2023-03-12T19:50:09.613Z,3.07
2023-03-12T19:52:38.751Z,3.77
2023-03-12T19:55:07.372Z,3.17
2023-03-12T19:57:36.855Z,3.40
2023-03-12T20:00:09.697Z,4.87
2023-03-12T20:02:39.073Z,4.73
2023-03-12T20:05:09.327Z,4.40
2023-03-12T20:07:37.448Z,3.87
2023-03-12T20:10:06.559Z,2.90
2023-03-12T20:12:36.131Z,2.77
2023-03-12T20:15:04.480Z,3.10
2023-03-12T20:17:32.644Z,3.00
2023-03-12T20:20:01.334Z,3.17
2023-03-12T20:22:29.430Z,2.70
2023-03-12T20:24:57.456Z,2.50
2023-03-12T20:27:25.392Z,2.73
2023-03-12T20:29:54.798Z,3.33
2023-03-12T20:32:22.875Z,3.27
2023-03-12T20:34:50.848Z,3.67
2023-03-12T20:37:19.516Z,3.10
2023-03-12T20:39:47.459Z,3.03
2023-03-12T20:42:15.447Z,4.80
2023-03-12T20:44:43.416Z,14.93
2023-03-12T20:47:12.821Z,18.77
2023-03-12T20:49:40.742Z,31.60
2023-03-12T20:52:08.751Z,33.10
2023-03-12T20:54:36.742Z,31.70
2023-03-12T20:57:04.823Z,48.57
2023-03-12T20:59:32.824Z,18.23
2023-03-12T21:02:00.903Z,9.17
2023-03-12T21:04:30.319Z,8.67
2023-03-12T21:06:58.308Z,12.33
2023-03-12T21:09:26.280Z,9.70
2023-03-12T21:11:54.249Z,10.50
2023-03-12T21:14:22.256Z,10.20
2023-03-12T21:16:50.293Z,10.53
2023-03-12T21:19:18.356Z,9.07
2023-03-12T21:21:47.726Z,6.27
2023-03-12T21:24:17.782Z,4.70
2023-03-12T21:26:46.325Z,3.90
2023-03-12T21:29:14.438Z,5.17
2023-03-12T21:31:42.562Z,4.73
2023-03-12T21:34:10.625Z,4.87
2023-03-12T21:36:38.658Z,4.07
2023-03-12T21:39:08.107Z,3.97
2023-03-12T21:41:36.117Z,4.13
2023-03-12T21:44:04.083Z,4.13
2023-03-12T21:46:32.415Z,3.80
2023-03-12T21:49:00.764Z,4.13
2023-03-12T21:51:28.839Z,4.00
2023-03-12T21:53:58.249Z,4.70
2023-03-12T21:56:28.973Z,4.40
2023-03-12T21:58:58.107Z,4.87
2023-03-12T22:01:26.670Z,4.57
2023-03-12T22:03:54.802Z,4.30
2023-03-12T22:06:23.038Z,4.17
2023-03-12T22:08:52.404Z,4.43
2023-03-12T22:11:20.617Z,4.53
2023-03-12T22:13:50.172Z,4.40
2023-03-12T22:16:18.331Z,4.67
2023-03-12T22:18:47.366Z,3.70
2023-03-12T22:21:17.138Z,3.90
2023-03-12T22:23:48.079Z,4.47
2023-03-12T22:26:16.524Z,3.90
2023-03-12T22:28:51.562Z,3.83
2023-03-12T22:31:20.918Z,3.70
2023-03-12T22:33:49.041Z,4.40
2023-03-12T22:36:18.486Z,3.97
2023-03-12T22:38:47.778Z,4.10
2023-03-12T22:41:17.889Z,3.20
2023-03-12T22:43:46.969Z,3.33
2023-03-12T22:46:17.137Z,3.57
2023-03-12T22:48:45.560Z,2.77
2023-03-12T22:51:14.241Z,2.80
2023-03-12T22:53:42.171Z,3.30
2023-03-12T22:56:12.480Z,3.50
2023-03-12T22:58:40.882Z,3.80
2023-03-12T23:01:10.482Z,3.17
2023-03-12T23:03:42.193Z,3.47
2023-03-12T23:06:11.163Z,3.90
2023-03-12T23:08:39.424Z,3.47
2023-03-12T23:11:08.593Z,3.67
2023-03-12T23:13:39.242Z,3.20
2023-03-12T23:16:09.484Z,2.63
2023-03-12T23:18:39.231Z,3.13
2023-03-12T23:21:10.529Z,4.60
2023-03-12T23:23:41.923Z,5.07
2023-03-12T23:26:13.395Z,5.40
2023-03-12T23:28:41.413Z,4.83
2023-03-12T23:31:10.801Z,4.83
2023-03-12T23:33:40.476Z,4.97
2023-03-12T23:36:10.911Z,5.00
2023-03-12T23:38:39.315Z,5.03
2023-03-12T23:41:09.269Z,5.20
2023-03-12T23:43:37.448Z,5.03
2023-03-12T23:46:07.479Z,5.60
2023-03-12T23:48:37.248Z,5.33
2023-03-12T23:51:08.774Z,5.20
2023-03-12T23:53:37.752Z,5.33
2023-03-12T23:56:08.598Z,5.47
2023-03-12T23:58:37.039Z,5.83
